createdAt,value
2023-01-22T00:00:08.590Z,102468.75
2023-01-22T00:05:10.480Z,102480.72
2023-01-22T00:10:14.614Z,102495.66
2023-01-22T00:15:16.180Z,102490.91
2023-01-22T00:20:18.050Z,102490.28
2023-01-22T00:25:19.635Z,102480.94
2023-01-22T00:30:21.169Z,102475.00
2023-01-22T00:35:23.039Z,102465.81
2023-01-22T00:40:24.451Z,102465.38
2023-01-22T00:45:25.929Z,102459.72
2023-01-22T00:55:29.684Z,102435.81
2023-01-22T01:00:31.210Z,102439.19
2023-01-22T01:05:35.121Z,102440.13
2023-01-22T01:10:36.503Z,102433.03
2023-01-22T01:15:38.051Z,102435.75
2023-01-22T01:20:40.126Z,102430.03
2023-01-22T01:25:41.565Z,102445.31
2023-01-22T01:30:44.023Z,102439.03
2023-01-22T01:35:45.405Z,102441.19
2023-01-22T01:40:46.916Z,102434.34
2023-01-22T01:45:48.372Z,102426.19
2023-01-22T01:50:57.999Z,102421.34
2023-01-22T01:56:06.128Z,102422.28
2023-01-22T02:01:14.114Z,102424.06
2023-01-22T02:06:17.784Z,102427.28
2023-01-22T02:11:21.422Z,102421.38
2023-01-22T02:16:23.103Z,102409.47
2023-01-22T02:26:31.587Z,102399.00
2023-01-22T02:31:33.441Z,102393.94
2023-01-22T02:36:37.151Z,102400.59
2023-01-22T02:41:38.576Z,102399.63
2023-01-22T02:46:40.071Z,102408.38
2023-01-22T02:51:41.491Z,102420.53
2023-01-22T02:56:45.121Z,102404.34
2023-01-22T03:01:48.915Z,102404.03
2023-01-22T03:06:50.334Z,102401.44
2023-01-22T03:11:54.665Z,102398.09
2023-01-22T03:16:56.606Z,102395.19
2023-01-22T03:21:58.010Z,102383.69
2023-01-22T03:26:59.368Z,102382.88
2023-01-22T03:32:00.810Z,102386.09
2023-01-22T03:37:02.292Z,102377.75
2023-01-22T03:42:05.464Z,102371.75
2023-01-22T03:47:07.427Z,102381.78
2023-01-22T03:52:08.886Z,102379.81
2023-01-22T03:57:10.326Z,102387.69
2023-01-22T04:02:11.704Z,102378.44
2023-01-22T04:12:15.203Z,102381.25
2023-01-22T04:17:16.581Z,102376.53
2023-01-22T04:22:18.131Z,102378.69
2023-01-22T04:27:19.523Z,102378.44
2023-01-22T04:32:23.116Z,102386.84
2023-01-22T04:37:24.527Z,102391.31
2023-01-22T04:42:26.064Z,102378.03
2023-01-22T04:47:27.773Z,102386.25
2023-01-22T04:52:29.299Z,102389.47
2023-01-22T04:57:30.708Z,102385.41
2023-01-22T05:02:32.770Z,102384.53
2023-01-22T05:07:34.885Z,102389.91
2023-01-22T05:12:36.284Z,102392.81
2023-01-22T05:17:37.679Z,102395.06
2023-01-22T05:22:39.157Z,102393.75
2023-01-22T05:27:40.521Z,102388.69
2023-01-22T05:32:42.047Z,102393.38
2023-01-22T05:37:44.125Z,102390.38
2023-01-22T05:42:45.498Z,102391.06
2023-01-22T05:47:53.855Z,102384.41
2023-01-22T05:52:55.752Z,102396.28
2023-01-22T05:57:57.188Z,102393.38
2023-01-22T06:03:00.160Z,102404.41
2023-01-22T06:13:03.023Z,102406.94
2023-01-22T06:18:04.553Z,102404.25
2023-01-22T06:23:06.021Z,102394.31
2023-01-22T06:28:07.453Z,102404.25
2023-01-22T06:33:09.019Z,102405.94
2023-01-22T06:38:10.554Z,102396.91
2023-01-22T06:43:12.127Z,102401.72
2023-01-22T06:48:13.614Z,102404.69
2023-01-22T06:53:15.105Z,102413.03
2023-01-22T06:58:17.024Z,102418.84
2023-01-22T07:03:18.741Z,102415.25
2023-01-22T07:08:20.273Z,102428.09
2023-01-22T07:13:22.012Z,102437.16
2023-01-22T07:18:23.425Z,102440.81
2023-01-22T07:23:24.892Z,102449.41
2023-01-22T07:28:26.401Z,102448.28
2023-01-22T07:33:28.283Z,102451.09
2023-01-22T07:38:30.240Z,102462.88
2023-01-22T07:43:32.103Z,102466.63
2023-01-22T07:48:34.191Z,102467.09
2023-01-22T07:53:35.663Z,102464.16
2023-01-22T07:58:38.178Z,102469.16
2023-01-22T08:03:39.692Z,102469.88
2023-01-22T08:08:41.280Z,102470.91
2023-01-22T08:13:43.497Z,102476.16
2023-01-22T08:18:45.935Z,102478.91
2023-01-22T08:23:49.201Z,102477.72
2023-01-22T08:28:51.032Z,102476.47
2023-01-22T08:33:52.409Z,102490.16
2023-01-22T08:38:55.619Z,102487.94
2023-01-22T08:43:57.109Z,102484.69
2023-01-22T08:48:58.534Z,102484.13
2023-01-22T08:53:59.920Z,102495.28
2023-01-22T08:59:01.561Z,102487.41
2023-01-22T09:04:06.502Z,102488.53
2023-01-22T09:09:08.215Z,102499.31
2023-01-22T09:14:09.645Z,102505.41
2023-01-22T09:19:11.395Z,102495.09
2023-01-22T09:24:12.845Z,102500.78
2023-01-22T09:29:14.227Z,102507.97
2023-01-22T09:34:15.576Z,102505.78
2023-01-22T09:39:21.079Z,102507.59
2023-01-22T09:44:33.680Z,102515.41
2023-01-22T09:49:40.270Z,102518.59
2023-01-22T09:54:41.823Z,102509.16
2023-01-22T09:59:47.960Z,102506.81
2023-01-22T10:04:54.096Z,102517.13
2023-01-22T10:09:58.753Z,102513.97
2023-01-22T10:15:00.404Z,102517.53
2023-01-22T10:20:06.576Z,102519.97
2023-01-22T10:25:13.787Z,102513.38
2023-01-22T10:30:15.193Z,102516.72
2023-01-22T10:35:19.467Z,102501.97
2023-01-22T10:40:26.194Z,102500.25
2023-01-22T10:45:27.627Z,102493.53
2023-01-22T10:50:29.147Z,102497.59
2023-01-22T10:55:32.930Z,102488.91
2023-01-22T11:00:50.595Z,102485.91
2023-01-22T11:06:00.262Z,102484.06
2023-01-22T11:11:08.628Z,102488.31
2023-01-22T11:16:19.551Z,102497.59
2023-01-22T11:21:46.401Z,102493.31
2023-01-22T11:26:55.451Z,102486.81
2023-01-22T11:32:02.728Z,102485.13
2023-01-22T11:37:21.775Z,102486.41
2023-01-22T11:42:35.198Z,102478.59
2023-01-22T11:48:03.169Z,102480.88
2023-01-22T11:53:37.029Z,102477.56
2023-01-22T11:59:03.362Z,102482.25
2023-01-22T12:04:10.988Z,102483.91
2023-01-22T12:09:24.582Z,102471.69
2023-01-22T12:14:48.811Z,102482.75
2023-01-22T12:20:17.800Z,102477.34
2023-01-22T12:25:22.422Z,102478.25
2023-01-22T12:30:31.183Z,102481.88
2023-01-22T12:35:32.740Z,102486.03
2023-01-22T12:41:01.896Z,102492.03
2023-01-22T12:46:27.793Z,102489.06
2023-01-22T12:51:45.660Z,102485.44
2023-01-22T12:56:49.229Z,102487.53
2023-01-22T13:01:59.443Z,102482.41
2023-01-22T13:07:06.750Z,102482.41
2023-01-22T13:12:10.943Z,102473.94
2023-01-22T13:17:28.951Z,102482.41
2023-01-22T13:22:32.020Z,102487.72
2023-01-22T13:27:36.037Z,102489.72
2023-01-22T13:32:42.985Z,102487.03
2023-01-22T13:37:44.410Z,102484.06
2023-01-22T13:42:46.855Z,102483.91
2023-01-22T13:49:24.710Z,102484.66
2023-01-22T13:53:26.005Z,102493.28
2023-01-22T13:58:47.875Z,102491.16
2023-01-22T14:04:01.695Z,102491.78
2023-01-22T14:09:03.469Z,102493.97
2023-01-22T14:14:14.942Z,102496.72
2023-01-22T14:19:16.580Z,102509.97
2023-01-22T14:24:17.941Z,102518.53
2023-01-22T14:29:19.670Z,102524.03
2023-01-22T14:34:21.192Z,102523.16
2023-01-22T14:39:22.604Z,102528.34
2023-01-22T14:44:24.013Z,102537.19
2023-01-22T14:49:25.548Z,102547.16
2023-01-22T14:54:28.371Z,102551.16
2023-01-22T14:59:29.876Z,102552.84
2023-01-22T15:04:31.412Z,102556.00
2023-01-22T15:09:32.895Z,102559.91
2023-01-22T15:14:34.494Z,102563.56
2023-01-22T15:19:41.163Z,102573.03
2023-01-22T15:24:43.137Z,102581.25
2023-01-22T15:29:45.855Z,102571.59
2023-01-22T15:34:47.325Z,102576.59
2023-01-22T15:39:48.704Z,102581.34
2023-01-22T15:44:50.098Z,102585.00
2023-01-22T15:49:51.625Z,102592.28
2023-01-22T15:54:53.380Z,102588.16
2023-01-22T15:59:54.794Z,102587.31
2023-01-22T16:04:56.156Z,102584.16
2023-01-22T16:09:57.839Z,102590.16
2023-01-22T16:14:59.265Z,102591.00
2023-01-22T16:20:00.727Z,102586.38
2023-01-22T16:25:02.070Z,102580.59
2023-01-22T16:30:05.024Z,102585.50
2023-01-22T16:35:10.392Z,102586.78
2023-01-22T16:40:12.819Z,102584.56
2023-01-22T16:45:14.483Z,102589.94
2023-01-22T16:50:16.729Z,102590.03
2023-01-22T16:55:18.343Z,102586.97
2023-01-22T17:00:20.585Z,102584.34
2023-01-22T17:05:22.869Z,102590.59
2023-01-22T17:10:24.855Z,102589.94
2023-01-22T17:15:26.386Z,102597.19
2023-01-22T17:20:27.943Z,102603.25
2023-01-22T17:25:29.665Z,102603.16
2023-01-22T17:30:31.876Z,102601.28
2023-01-22T17:35:33.389Z,102608.13
2023-01-22T17:40:36.939Z,102604.97
2023-01-22T17:45:39.505Z,102604.97
2023-01-22T17:50:41.853Z,102618.31
2023-01-22T17:55:43.409Z,102626.59
2023-01-22T18:00:44.955Z,102627.22
2023-01-22T18:05:46.477Z,102627.44
2023-01-22T18:10:48.072Z,102638.06
2023-01-22T18:15:49.890Z,102637.28
2023-01-22T18:20:51.559Z,102634.47
2023-01-22T18:25:53.418Z,102640.66
2023-01-22T18:30:55.074Z,102638.97
2023-01-22T18:35:56.636Z,102636.44
2023-01-22T18:41:04.569Z,102649.13
2023-01-22T18:46:08.304Z,102657.59
2023-01-22T18:51:12.147Z,102655.66
2023-01-22T18:56:13.701Z,102652.75
2023-01-22T19:01:19.864Z,102659.47
2023-01-22T19:06:24.109Z,102669.47
2023-01-22T19:11:25.874Z,102677.94
2023-01-22T19:16:27.987Z,102672.50
2023-01-22T19:21:30.761Z,102669.97
2023-01-22T19:26:34.953Z,102677.44
2023-01-22T19:31:41.155Z,102695.28
2023-01-22T19:36:43.129Z,102699.38
2023-01-22T19:41:44.868Z,102701.59
2023-01-22T19:46:46.936Z,102702.66
2023-01-22T19:51:48.902Z,102703.16
2023-01-22T19:56:51.003Z,102714.94
2023-01-22T20:01:52.576Z,102715.97
2023-01-22T20:06:59.892Z,102707.25
2023-01-22T20:12:01.448Z,102718.13
2023-01-22T20:17:03.444Z,102708.09
2023-01-22T20:22:04.856Z,102712.50
2023-01-22T20:27:07.982Z,102714.34
2023-01-22T20:32:09.507Z,102719.38
2023-01-22T20:37:11.802Z,102730.59
2023-01-22T20:42:13.475Z,102725.56
2023-01-22T20:47:14.937Z,102730.50
2023-01-22T20:52:16.699Z,102726.19
2023-01-22T20:57:19.763Z,102737.66
2023-01-22T21:02:22.607Z,102733.13
2023-01-22T21:07:24.258Z,102723.47
2023-01-22T21:12:26.030Z,102740.81
2023-01-22T21:17:27.543Z,102738.59
2023-01-22T21:22:29.309Z,102741.09
2023-01-22T21:27:30.904Z,102739.53
2023-01-22T21:32:32.638Z,102739.31
2023-01-22T21:37:34.154Z,102745.22
2023-01-22T21:42:35.885Z,102747.00
2023-01-22T21:47:37.402Z,102741.84
2023-01-22T21:52:38.827Z,102741.00
2023-01-22T21:57:40.225Z,102747.63
2023-01-22T22:02:42.013Z,102742.91
2023-01-22T22:07:43.436Z,102747.63
2023-01-22T22:12:45.199Z,102735.47
2023-01-22T22:17:46.696Z,102741.94
2023-01-22T22:22:48.059Z,102732.41
2023-01-22T22:27:49.463Z,102728.81
2023-01-22T22:32:51.285Z,102736.31
2023-01-22T22:37:52.787Z,102737.44
2023-01-22T22:42:54.624Z,102746.16
2023-01-22T22:47:56.112Z,102759.28
2023-01-22T22:52:57.525Z,102753.28
2023-01-22T22:57:59.101Z,102747.75
2023-01-22T23:03:00.564Z,102758.41
2023-01-22T23:08:02.021Z,102756.47
2023-01-22T23:13:03.459Z,102754.56
2023-01-22T23:18:05.063Z,102757.94
2023-01-22T23:23:06.502Z,102752.34
2023-01-22T23:28:07.896Z,102771.78
2023-01-22T23:33:09.369Z,102760.53
2023-01-22T23:38:10.828Z,102763.91
2023-01-22T23:43:12.375Z,102767.44
2023-01-22T23:48:13.891Z,102768.16
2023-01-22T23:53:16.280Z,102778.69
2023-01-22T23:58:17.756Z,102775.00
